Airfield :
LOGIN :

Register | Disclaimer

   EN    FR    IT 

 










Legend :    VFR   Marginal VFR   IFR   Intensive IFR   Very Intensive IFR
Visi :
Ceiling :
>= 8 km
>= 3000ft
5 to 8 km
1000 to 3000 ft
1500m to 5 km
500 to 1000 ft
800 to 1500m
200 to 500 ft
< 800m
< 200 ft
Symbols :   Thunderstorms  Fog  Heavy snow  Heavy precipitations  Wind > 20 kt
SIGMETs :     Misc.  Thunderstorms  Icing  Turbulence  Mountain Waves  Volcanic Ashes







- Airport Elevation : 187 ft


ETNW - Wunstorf AB

CURRENT METAR :
  • 252320Z 29009KT 8000 BKN005 04/04 Q1026 YLO

EXPIRED METARs :
  • 252220Z 29009KT 9000 BKN004 05/04 Q1026 YLO
  • 252120Z 30008KT 9999 FEW050 05/04 Q1025 BLU+

TAF TAF ETNW
Valid from the 26 at 00:00 until the 27 at 00:00 UTC


252301Z 2600/2624 30010KT 9999 NSW FEW020 SCT040
TEMPO 2600/2608 28005KT 4000 BR BKN004
PROB30 2600/2606 27004KT 1500 BR BKN002
BECMG 2608/2610 30012KT 9000 NSW SCT020 BKN050
TEMPO 2610/2621 29015G28KT 7000 -RADZ BKN015 BKN025 BY ETGL
No reported NOTAMs for that airfield.



MET'MAP, your aeronautical weather chart ! - Copyright ORBIFLY December 2007 - Disclaimer

ORBIFLY MET'MAP TEAM :

Programming & Development : Alexandra Zaïnal
Concept & Development : Baudouin d'Aumeries
Co-Development & Prog : Marc-Olivier Méhu
Technical & hardware support : Manuel Goepfert

Contact : metmap@orbifly.com




SOURCES & CREDITS :

   NOAA